Time;durP1;ratioP1;P1;durP2;ratioP2;P2;SDS_P1;SDS_P2;PMS_P1;PMS_P2;Temp;Humidity;BMP_temperature;BMP_pressure;BME280_temperature;BME280_humidity;BME280_pressure;Samples;Min_cycle;Max_cycle;Signal;HPM_P1;HPM_P2
2022/07/17 00:01:14;;;;;;;3.43;3.13;;;;;;;15.86;100.00;97081.41;5072713;27;102885;-63
2022/07/17 00:03:41;;;;;;;3.00;2.70;;;;;;;15.82;100.00;97088.38;5072291;27;102582;-63
2022/07/17 00:06:09;;;;;;;3.33;3.00;;;;;;;15.59;100.00;97086.97;5072723;27;101830;-63
2022/07/17 00:08:36;;;;;;;3.23;3.00;;;;;;;15.82;100.00;97091.06;5054237;27;103678;-63
2022/07/17 00:11:04;;;;;;;3.37;3.07;;;;;;;16.00;100.00;97086.00;5075584;27;104265;-63
2022/07/17 00:13:31;;;;;;;3.07;2.80;;;;;;;15.85;100.00;97079.78;5072210;27;102530;-63
2022/07/17 00:16:00;;;;;;;3.27;3.03;;;;;;;15.42;100.00;97082.94;5072053;27;102823;-63
2022/07/17 00:18:27;;;;;;;3.27;2.97;;;;;;;15.62;100.00;97086.47;5054140;27;101985;-63
2022/07/17 00:20:54;;;;;;;4.10;2.93;;;;;;;15.64;100.00;97075.47;5072421;27;102734;-63
2022/07/17 00:23:22;;;;;;;3.40;3.10;;;;;;;15.29;100.00;97078.03;5072143;27;102802;-63
2022/07/17 00:25:49;;;;;;;4.50;3.07;;;;;;;15.21;100.00;97091.94;5072598;27;101838;-63
2022/07/17 00:28:16;;;;;;;3.30;2.90;;;;;;;15.16;100.00;97078.53;5072458;27;102945;-63
2022/07/17 00:30:43;;;;;;;4.83;2.87;;;;;;;15.16;100.00;97079.31;5053341;27;104773;-63
2022/07/17 00:33:12;;;;;;;3.10;2.80;;;;;;;15.26;100.00;97075.88;5057029;27;101789;-63
2022/07/17 00:35:39;;;;;;;3.23;2.93;;;;;;;15.23;100.00;97079.06;5071720;27;103143;-63
2022/07/17 00:38:07;;;;;;;3.07;2.80;;;;;;;15.32;100.00;97072.16;5072414;27;101672;-63
2022/07/17 00:40:34;;;;;;;3.20;2.90;;;;;;;15.16;100.00;97079.31;5072337;27;102389;-63
2022/07/17 00:43:01;;;;;;;2.90;2.60;;;;;;;15.38;100.00;97077.28;5053217;27;103753;-63
2022/07/17 00:45:28;;;;;;;2.90;2.60;;;;;;;15.55;100.00;97075.19;5072133;27;102516;-63
2022/07/17 00:47:57;;;;;;;2.67;2.47;;;;;;;15.62;100.00;97085.66;5072537;27;102627;-63
2022/07/17 00:50:28;;;;;;;2.73;2.53;;;;;;;15.66;100.00;97074.16;5071424;27;102602;-63
2022/07/17 00:52:56;;;;;;;2.87;2.67;;;;;;;15.86;100.00;97076.06;5075767;27;101690;-63
2022/07/17 00:55:23;;;;;;;3.10;2.80;;;;;;;15.56;100.00;97078.66;5052822;27;105309;-61
2022/07/17 00:57:51;;;;;;;2.80;2.60;;;;;;;15.60;100.00;97077.06;5071603;27;101835;-61
2022/07/17 01:00:19;;;;;;;2.60;2.40;;;;;;;15.82;100.00;97077.66;5072145;27;102403;-60
2022/07/17 01:02:48;;;;;;;3.87;2.73;;;;;;;15.46;100.00;97079.47;5070855;27;104739;-61
2022/07/17 01:05:16;;;;;;;2.80;2.57;;;;;;;15.49;100.00;97078.91;5052561;27;101935;-61
2022/07/17 01:07:44;;;;;;;2.77;2.50;;;;;;;15.63;100.00;97073.84;5072036;27;102341;-60
2022/07/17 01:10:11;;;;;;;2.70;2.50;;;;;;;15.76;100.00;97078.72;5052623;27;105354;-60
2022/07/17 01:12:40;;;;;;;2.57;2.37;;;;;;;15.75;100.00;97082.47;5071041;27;101897;-61
2022/07/17 01:15:08;;;;;;;2.90;2.70;;;;;;;15.59;100.00;97070.91;5074537;27;102440;-60
2022/07/17 01:17:36;;;;;;;3.97;2.90;;;;;;;15.40;100.00;97080.50;5053333;27;102035;-60
2022/07/17 01:20:04;;;;;;;2.97;2.77;;;;;;;15.25;100.00;97076.94;5071637;27;102608;-61
2022/07/17 01:22:33;;;;;;;2.50;2.30;;;;;;;14.93;100.00;97076.28;5070984;27;102622;-60
2022/07/17 01:25:00;;;;;;;3.27;2.63;;;;;;;14.88;100.00;97086.97;5053176;27;101986;-60
2022/07/17 01:27:27;;;;;;;2.97;2.67;;;;;;;14.48;100.00;97092.88;5053027;27;105296;-61
2022/07/17 01:29:57;;;;;;;2.40;2.20;;;;;;;14.76;100.00;97086.34;5070972;27;103073;-60
2022/07/17 01:32:33;;;;;;;2.90;2.70;;;;;;;14.96;100.00;97089.13;5071244;27;101744;-60
2022/07/17 01:35:00;;;;;;;2.40;2.20;;;;;;;15.18;100.00;97089.78;5071677;27;102354;-60
2022/07/17 01:37:28;;;;;;;2.73;2.47;;;;;;;15.10;100.00;97084.94;5074316;27;101750;-60
2022/07/17 01:39:57;;;;;;;2.93;2.27;;;;;;;15.13;100.00;97081.72;5070985;27;104118;-60
2022/07/17 01:42:26;;;;;;;3.50;2.67;;;;;;;15.29;100.00;97078.03;5070520;27;102560;-60
2022/07/17 01:44:55;;;;;;;3.00;2.77;;;;;;;15.02;100.00;97080.06;5070998;27;101880;-61
2022/07/17 01:47:23;;;;;;;3.10;2.70;;;;;;;14.97;100.00;97086.22;5071463;27;102360;-60
2022/07/17 01:49:53;;;;;;;2.60;2.40;;;;;;;15.24;100.00;97078.81;5051788;27;105521;-60
2022/07/17 01:52:21;;;;;;;3.93;3.00;;;;;;;14.95;100.00;97076.81;5071269;27;101859;-61
2022/07/17 01:54:48;;;;;;;2.90;2.70;;;;;;;15.07;100.00;97088.13;5071319;27;102371;-60
2022/07/17 01:57:17;;;;;;;3.10;2.43;;;;;;;15.29;100.00;97078.03;5070637;27;102656;-61
2022/07/17 01:59:44;;;;;;;3.00;2.80;;;;;;;15.16;100.00;97081.19;5074221;27;101880;-61
2022/07/17 02:02:12;;;;;;;3.57;3.03;;;;;;;15.21;100.00;97086.59;5070511;27;102572;-61
2022/07/17 02:04:41;;;;;;;3.33;3.03;;;;;;;15.26;100.00;97086.59;5071148;27;101837;-60
2022/07/17 02:07:09;;;;;;;3.70;2.57;;;;;;;15.50;100.00;97090.44;5070634;27;102868;-60
2022/07/17 02:09:38;;;;;;;2.90;2.70;;;;;;;15.68;100.00;97095.31;5070274;27;102575;-61
2022/07/17 02:12:06;;;;;;;3.00;2.70;;;;;;;15.59;100.00;97088.88;5070653;27;101949;-61
2022/07/17 02:14:35;;;;;;;2.67;2.47;;;;;;;15.70;100.00;97096.66;5052071;27;103555;-60
2022/07/17 02:17:03;;;;;;;3.40;2.97;;;;;;;15.46;100.00;97090.19;5070234;27;102647;-60
2022/07/17 02:19:30;;;;;;;2.67;2.47;;;;;;;15.47;100.00;97096.34;5052553;27;102088;-60
2022/07/17 02:21:57;;;;;;;2.80;2.60;;;;;;;15.42;100.00;97086.41;5073687;27;102348;-60
2022/07/17 02:24:24;;;;;;;2.20;2.10;;;;;;;15.53;100.00;97092.63;5070809;27;102207;-60
2022/07/17 02:26:51;;;;;;;3.10;2.80;;;;;;;15.44;100.00;97094.19;5070842;27;102574;-60
2022/07/17 02:29:19;;;;;;;3.33;2.77;;;;;;;15.55;100.00;97088.59;5051621;27;105736;-60
2022/07/17 02:31:47;;;;;;;2.97;2.77;;;;;;;15.50;100.00;97080.56;5086497;27;101920;-60
2022/07/17 02:34:15;;;;;;;2.70;2.50;;;;;;;15.49;100.00;97083.47;5070151;27;102258;-61
2022/07/17 02:36:42;;;;;;;3.53;2.73;;;;;;;15.50;100.00;97085.09;5069942;27;102991;-60
2022/07/17 02:39:09;;;;;;;3.77;2.93;;;;;;;15.21;100.00;97082.00;5070870;27;101828;-61
2022/07/17 02:41:36;;;;;;;2.73;2.53;;;;;;;15.14;100.00;97080.63;5070330;27;102404;-60
2022/07/17 02:44:04;;;;;;;2.87;2.67;;;;;;;15.25;100.00;97082.28;5073327;27;101850;-60
2022/07/17 02:46:31;;;;;;;3.27;2.97;;;;;;;15.22;100.00;97088.19;5052018;27;105631;-60
2022/07/17 02:49:00;;;;;;;3.40;2.53;;;;;;;14.89;100.00;97084.00;5069969;27;102552;-60
2022/07/17 02:51:27;;;;;;;3.30;2.73;;;;;;;14.74;100.00;97080.44;5070644;27;101779;-60
2022/07/17 02:53:53;;;;;;;2.87;2.67;;;;;;;14.71;100.00;97070.28;5070140;27;102264;-60
2022/07/17 02:56:21;;;;;;;2.90;2.60;;;;;;;14.76;100.00;97083.66;5085489;27;105708;-61
2022/07/17 02:58:49;;;;;;;2.60;2.27;;;;;;;14.82;100.00;97083.44;5051960;27;102194;-60
2022/07/17 03:01:16;;;;;;;3.10;2.80;;;;;;;14.69;100.00;97080.41;5070504;27;102369;-60
2022/07/17 03:03:43;;;;;;;2.73;2.53;;;;;;;14.38;100.00;97086.66;5073062;27;102004;-60
2022/07/17 03:06:12;;;;;;;3.90;2.80;;;;;;;14.29;100.00;97088.19;5051623;27;105487;-60
2022/07/17 03:08:39;;;;;;;3.60;3.30;;;;;;;14.39;100.00;97088.28;5050966;27;105426;-60
2022/07/17 03:11:06;;;;;;;2.87;2.53;;;;;;;14.58;100.00;97092.13;5070101;27;101853;-60
2022/07/17 03:13:33;;;;;;;2.80;2.60;;;;;;;14.63;100.00;97095.66;5069557;27;102401;-60
2022/07/17 03:16:00;;;;;;;4.17;2.87;;;;;;;14.32;100.00;97095.69;5050853;27;105580;-60
2022/07/17 03:18:27;;;;;;;2.50;2.30;;;;;;;14.72;100.00;97095.97;5086077;27;101887;-60
2022/07/17 03:20:54;;;;;;;5.17;2.90;;;;;;;14.92;100.00;97098.75;5070036;27;102377;-61
2022/07/17 03:23:23;;;;;;;3.20;2.90;;;;;;;14.74;100.00;97094.66;5069590;27;102124;-60
2022/07/17 03:25:50;;;;;;;3.07;2.87;;;;;;;13.99;100.00;97088.72;5073265;27;101832;-60
2022/07/17 03:28:17;;;;;;;2.57;2.37;;;;;;;14.34;100.00;97090.91;5072350;27;102604;-61
2022/07/17 03:30:45;;;;;;;3.33;3.07;;;;;;;14.29;100.00;97093.53;5089212;27;102027;-60
2022/07/17 03:33:12;;;;;;;3.03;2.73;;;;;;;14.01;100.00;97091.16;5073132;27;102535;-60
2022/07/17 03:35:39;;;;;;;4.60;3.70;;;;;;;13.83;100.00;97103.00;5072695;27;102682;-60
2022/07/17 03:38:06;;;;;;;3.63;3.33;;;;;;;14.16;100.00;97104.63;5073660;27;102205;-61
2022/07/17 03:40:35;;;;;;;3.33;3.13;;;;;;;14.22;100.00;97109.81;5054726;27;103707;-61
2022/07/17 03:43:02;;;;;;;3.20;2.93;;;;;;;14.36;100.00;97112.84;5053900;27;104403;-61
2022/07/17 03:45:29;;;;;;;3.73;2.90;;;;;;;14.59;100.00;97115.97;5073252;27;101811;-61
2022/07/17 03:47:56;;;;;;;2.90;2.70;;;;;;;14.81;100.00;97102.44;5076385;27;102361;-61
2022/07/17 03:50:24;;;;;;;3.60;3.30;;;;;;;14.97;100.00;97101.47;5054245;27;101975;-61
2022/07/17 03:52:51;;;;;;;3.10;2.80;;;;;;;15.04;100.00;97104.72;5073464;27;102583;-61
2022/07/17 03:55:18;;;;;;;2.90;2.70;;;;;;;14.97;100.00;97104.97;5072372;27;103252;-61
2022/07/17 03:57:47;;;;;;;3.17;2.87;;;;;;;14.88;100.00;97097.69;5073074;27;101989;-61
2022/07/17 04:00:15;;;;;;;2.90;2.70;;;;;;;14.79;100.00;97105.41;5054191;27;103530;-61
2022/07/17 04:02:42;;;;;;;3.57;3.27;;;;;;;14.49;100.00;97102.53;5053929;27;103823;-61
2022/07/17 04:05:11;;;;;;;3.00;2.80;;;;;;;14.36;100.00;97104.81;5054280;27;101965;-61
2022/07/17 04:07:38;;;;;;;3.00;2.70;;;;;;;14.19;100.00;97104.97;5073119;27;102484;-61
2022/07/17 04:10:08;;;;;;;3.00;2.80;;;;;;;13.92;100.00;97109.53;5057185;27;105465;-61
2022/07/17 04:12:35;;;;;;;3.00;2.80;;;;;;;14.50;100.00;97106.81;5053556;27;105396;-61
2022/07/17 04:15:04;;;;;;;3.20;3.00;;;;;;;14.71;100.00;97110.44;5071571;27;104286;-61
2022/07/17 04:17:32;;;;;;;4.60;2.83;;;;;;;14.72;100.00;97107.47;5054241;27;101842;-62
2022/07/17 04:19:59;;;;;;;3.13;2.83;;;;;;;14.62;100.00;97111.97;5072606;27;102353;-62
2022/07/17 04:22:26;;;;;;;3.90;3.57;;;;;;;14.50;100.00;97111.38;5071789;27;104608;-62
2022/07/17 04:24:53;;;;;;;4.83;3.33;;;;;;;14.81;100.00;97113.16;5072540;27;101807;-62
2022/07/17 04:27:20;;;;;;;3.90;3.50;;;;;;;14.43;100.00;97116.94;5054280;27;105896;-61
2022/07/17 04:29:47;;;;;;;3.60;3.17;;;;;;;14.58;100.00;97116.22;5072061;27;102816;-61
2022/07/17 04:32:16;;;;;;;3.40;3.10;;;;;;;14.81;100.00;97115.84;5075964;27;101827;-62
2022/07/17 04:34:43;;;;;;;3.63;3.33;;;;;;;14.93;100.00;97114.56;5071673;27;102707;-62
2022/07/17 04:37:10;;;;;;;3.00;2.70;;;;;;;15.32;100.00;97115.81;5053376;27;102018;-62
2022/07/17 04:39:37;;;;;;;3.13;2.90;;;;;;;15.54;100.00;97113.00;5053496;27;105701;-62
2022/07/17 04:42:04;;;;;;;5.30;3.63;;;;;;;15.76;100.00;97109.00;5087219;27;106546;-62
2022/07/17 04:44:31;;;;;;;3.50;3.20;;;;;;;15.88;100.00;97106.91;5053589;27;102157;-62
2022/07/17 04:46:58;;;;;;;5.47;3.63;;;;;;;15.92;100.00;97109.84;5071915;27;102353;-62
2022/07/17 04:49:27;;;;;;;3.20;3.00;;;;;;;16.13;100.00;97112.28;5071357;27;102645;-61
2022/07/17 04:51:54;;;;;;;4.07;2.97;;;;;;;16.28;100.00;97106.94;5075511;27;102070;-62
2022/07/17 04:54:21;;;;;;;3.67;3.00;;;;;;;16.38;100.00;97108.81;5052955;27;105563;-62
2022/07/17 04:56:48;;;;;;;3.67;2.90;;;;;;;16.43;100.00;97114.19;5071991;27;102039;-62
2022/07/17 04:59:15;;;;;;;2.70;2.50;;;;;;;16.31;100.00;97110.97;5053415;27;105584;-62
2022/07/17 05:01:42;;;;;;;3.30;3.00;;;;;;;16.50;100.00;97112.03;5071243;27;103187;-62
2022/07/17 05:04:09;;;;;;;3.67;3.13;;;;;;;16.39;100.00;97107.75;5053209;27;101968;-62
2022/07/17 05:06:38;;;;;;;3.87;2.90;;;;;;;15.94;100.00;97110.38;5053164;27;105218;-62
2022/07/17 05:09:05;;;;;;;4.77;2.80;;;;;;;16.21;100.00;97106.41;5071551;27;103159;-62
2022/07/17 05:11:33;;;;;;;3.00;2.53;;;;;;;16.44;100.00;97116.63;5071948;27;101794;-62
2022/07/17 05:14:00;;;;;;;3.17;2.73;;;;;;;16.59;100.00;97108.56;5055600;27;105253;-62
2022/07/17 05:16:27;;;;;;;2.60;2.40;;;;;;;16.44;100.00;97108.56;5071672;27;102055;-62
2022/07/17 05:18:54;;;;;;;2.70;2.50;;;;;;;15.82;100.00;97109.84;5071510;27;102684;-62
2022/07/17 05:21:21;;;;;;;2.47;2.30;;;;;;;15.75;100.00;97110.09;5071098;27;101969;-62
2022/07/17 05:23:50;;;;;;;2.90;2.63;;;;;;;15.76;100.00;97108.22;5071680;27;101896;-61
2022/07/17 05:26:18;;;;;;;3.80;2.30;;;;;;;15.95;100.00;97109.31;5071610;27;102848;-61
2022/07/17 05:28:45;;;;;;;4.00;2.67;;;;;;;16.08;100.00;97111.50;5052181;27;105623;-61
2022/07/17 05:31:12;;;;;;;2.67;2.47;;;;;;;16.33;100.00;97103.44;5071549;27;101789;-62
2022/07/17 05:33:39;;;;;;;2.73;2.53;;;;;;;16.36;100.00;97108.28;5071368;27;103181;-60
2022/07/17 05:36:06;;;;;;;3.27;2.73;;;;;;;16.53;100.00;97100.78;5074213;27;102680;-60
2022/07/17 05:38:34;;;;;;;5.77;2.60;;;;;;;16.94;100.00;97107.69;5052789;27;105560;-60
2022/07/17 05:41:02;;;;;;;7.57;3.10;;;;;;;16.85;100.00;97102.03;5070899;27;103069;-63
2022/07/17 05:43:30;;;;;;;4.80;2.80;;;;;;;16.81;100.00;97108.25;5052777;27;101881;-66
2022/07/17 05:45:58;;;;;;;4.07;2.97;;;;;;;17.23;100.00;97106.75;5052768;27;105435;-63
2022/07/17 05:48:26;;;;;;;6.23;2.80;;;;;;;17.68;100.00;97113.88;5052241;27;105645;-58
2022/07/17 05:50:53;;;;;;;5.33;2.63;;;;;;;17.74;100.00;97118.13;5051549;27;102016;-60
2022/07/17 05:53:21;;;;;;;3.83;2.30;;;;;;;17.74;100.00;97110.06;5052736;27;105300;-60
2022/07/17 05:55:48;;;;;;;4.13;2.40;;;;;;;17.18;100.00;97109.50;5070382;27;102586;-60
2022/07/17 05:58:17;;;;;;;3.53;2.50;;;;;;;17.32;100.00;97115.06;5074543;27;101690;-60
2022/07/17 06:00:45;;;;;;;2.77;2.50;;;;;;;17.85;100.00;97115.13;5052081;27;105438;-60
2022/07/17 06:03:12;;;;;;;2.67;2.47;;;;;;;17.53;100.00;97116.63;5052583;27;101896;-60
2022/07/17 06:05:39;;;;;;;3.77;2.43;;;;;;;17.88;100.00;97111.06;5070870;27;102323;-60
2022/07/17 06:08:07;;;;;;;3.43;2.70;;;;;;;17.84;100.00;97112.69;5070234;27;103235;-60
2022/07/17 06:10:35;;;;;;;6.20;2.80;;;;;;;17.84;100.00;97112.69;5071006;27;101875;-60
2022/07/17 06:13:02;;;;;;;3.40;2.80;;;;;;;17.65;100.00;97109.84;5052140;27;105734;-60
2022/07/17 06:15:31;;;;;;;4.10;2.43;;;;;;;18.05;100.00;97108.78;5070266;27;102589;-60
2022/07/17 06:18:01;;;;;;;2.70;2.50;;;;;;;18.37;100.00;97111.81;5070962;27;101698;-60
2022/07/17 06:20:29;;;;;;;2.50;2.30;;;;;;;18.65;100.00;97113.72;5073564;27;101866;-60
2022/07/17 06:22:56;;;;;;;2.57;1.93;;;;;;;18.90;100.00;97116.16;5070911;27;101833;-60
2022/07/17 06:25:23;;;;;;;4.17;3.10;;;;;;;18.94;100.00;97123.41;5052107;27;105199;-60
2022/07/17 06:27:51;;;;;;;8.23;4.97;;;;;;;18.94;100.00;97128.81;5070444;27;103196;-60
2022/07/17 06:30:17;;;;;;;3.60;2.53;;;;;;;18.23;100.00;97126.97;5070643;27;101794;-60
2022/07/17 06:32:46;;;;;;;3.90;2.43;;;;;;;18.62;100.00;97122.34;5051904;27;105817;-60
2022/07/17 06:35:13;;;;;;;3.67;2.73;;;;;;;18.71;100.00;97123.38;5051163;27;104338;-60
2022/07/17 06:37:40;;;;;;;4.67;2.90;;;;;;;18.95;100.00;97130.41;5070695;27;102048;-60
2022/07/17 06:40:08;;;;;;;4.20;2.70;;;;;;;18.69;100.00;97126.34;5070684;27;102956;-60
2022/07/17 06:42:36;;;;;;;3.37;2.60;;;;;;;18.52;100.00;97123.25;5072861;27;103104;-60
2022/07/17 06:45:03;;;;;;;4.13;2.83;;;;;;;19.14;100.00;97123.16;5070460;27;102341;-60
2022/07/17 06:47:30;;;;;;;3.40;3.10;;;;;;;19.56;100.00;97119.78;5069979;27;102554;-60
2022/07/17 06:49:59;;;;;;;2.83;2.63;;;;;;;19.51;100.00;97125.22;5051710;27;101908;-60
2022/07/17 06:52:26;;;;;;;3.03;2.63;;;;;;;19.68;100.00;97123.63;5070407;27;102292;-60
2022/07/17 06:54:54;;;;;;;2.77;2.40;;;;;;;19.60;100.00;97126.16;5051574;27;105286;-60
2022/07/17 06:57:21;;;;;;;3.60;2.50;;;;;;;19.41;100.00;97126.13;5069411;27;102198;-60
2022/07/17 06:59:48;;;;;;;8.80;2.53;;;;;;;19.32;100.00;97124.34;5069918;27;102305;-60
2022/07/17 07:02:15;;;;;;;3.67;2.27;;;;;;;19.83;100.00;97123.44;5056114;27;105838;-60
2022/07/17 07:04:43;;;;;;;3.17;2.40;;;;;;;19.91;100.00;97121.97;5080576;27;105651;-60
2022/07/17 07:07:12;;;;;;;2.53;2.30;;;;;;;20.19;100.00;97124.56;5053017;27;102488;-60
2022/07/17 07:09:39;;;;;;;2.50;2.30;;;;;;;20.44;100.00;97129.56;5061977;27;102354;-60
2022/07/17 07:12:07;;;;;;;4.00;2.83;;;;;;;20.57;100.00;97118.00;5055134;27;105261;-61
2022/07/17 07:14:34;;;;;;;3.87;2.37;;;;;;;20.31;100.00;97126.81;5072847;27;102658;-60
2022/07/17 07:17:01;;;;;;;3.87;2.70;;;;;;;20.73;100.00;97126.66;5074071;27;101810;-60
2022/07/17 07:19:28;;;;;;;3.60;2.50;;;;;;;20.23;100.00;97128.31;5073467;27;102557;-60
2022/07/17 07:21:56;;;;;;;2.27;2.07;;;;;;;20.13;100.00;97133.84;5073258;27;102759;-60
2022/07/17 07:24:24;;;;;;;2.20;2.00;;;;;;;20.79;100.00;97136.28;5058708;27;101943;-60
2022/07/17 07:26:54;;;;;;;2.87;2.30;;;;;;;21.13;100.00;97134.06;5073205;27;103126;-60
2022/07/17 07:29:21;;;;;;;2.33;2.10;;;;;;;21.31;100.00;97130.50;5073483;27;101854;-60
2022/07/17 07:31:48;;;;;;;3.00;2.53;;;;;;;21.14;100.00;97131.06;5073325;27;102373;-60
2022/07/17 07:34:15;;;;;;;4.17;2.50;;;;;;;20.81;100.00;97128.69;5072921;27;102621;-60
2022/07/17 07:36:42;;;;;;;2.10;1.97;;;;;;;21.32;100.00;97122.09;5089206;27;101931;-60
2022/07/17 07:39:09;;;;;;;2.90;2.00;;;;;;;21.85;100.00;97131.28;5054828;27;105322;-60
2022/07/17 07:41:38;;;;;;;3.73;2.10;;;;;;;21.81;100.00;97130.31;5072919;27;102486;-60
2022/07/17 07:44:05;;;;;;;3.90;2.17;;;;;;;21.59;100.00;97126.69;5073203;27;102375;-60
2022/07/17 07:46:35;;;;;;;3.27;2.27;;;;;;;22.12;100.00;97125.78;5076452;27;102532;-60
2022/07/17 07:49:14;;;;;;;2.73;1.87;;;;;;;22.27;100.00;97121.94;5054518;27;102024;-60
2022/07/17 07:51:41;;;;;;;2.70;2.10;;;;;;;21.84;100.00;97118.84;5054936;27;103634;-60
2022/07/17 07:54:08;;;;;;;3.83;1.87;;;;;;;21.69;100.00;97123.78;5054030;27;105898;-61
2022/07/17 07:56:40;;;;;;;4.63;2.03;;;;;;;22.11;100.00;97126.09;5054856;27;101912;-60
2022/07/17 07:59:07;;;;;;;2.40;2.20;;;;;;;21.18;100.00;97125.84;5054013;27;105190;-60
2022/07/17 08:01:34;;;;;;;2.77;1.93;;;;;;;21.87;100.00;97129.09;5054121;27;105687;-60
2022/07/17 08:04:02;;;;;;;3.67;2.27;;;;;;;22.19;100.00;97125.38;5054640;27;101924;-60
2022/07/17 08:06:42;;;;;;;2.33;2.10;;;;;;;22.18;100.00;97123.78;5088064;27;105201;-60
2022/07/17 08:09:09;;;;;;;3.40;2.10;;;;;;;22.36;100.00;97136.34;5075299;27;104255;-60
2022/07/17 08:11:37;;;;;;;2.77;1.73;;;;;;;22.83;100.00;97142.00;5073229;27;101688;-60
2022/07/17 08:14:06;;;;;;;2.80;1.90;;;;;;;23.25;100.00;97137.94;5071217;27;102584;-60
2022/07/17 08:16:50;;;;;;;3.50;1.90;;;;;;;23.55;100.00;97134.38;5054186;27;101959;-60
2022/07/17 08:19:19;;;;;;;3.03;2.30;;;;;;;23.69;99.52;97137.78;5073043;27;102353;-60
2022/07/17 08:21:46;;;;;;;3.07;2.00;;;;;;;23.93;98.38;97143.63;5072270;27;103755;-60
2022/07/17 08:24:13;;;;;;;2.10;1.90;;;;;;;24.05;94.29;97141.09;5054199;27;101994;-60
2022/07/17 08:26:40;;;;;;;2.27;2.07;;;;;;;24.11;89.39;97145.25;5054519;27;105729;-60
2022/07/17 08:29:12;;;;;;;2.87;2.20;;;;;;;23.93;90.35;97143.63;5053353;27;105269;-60
2022/07/17 08:31:38;;;;;;;1.90;1.80;;;;;;;24.02;89.81;97142.53;5076498;27;101852;-60
2022/07/17 08:34:06;;;;;;;2.07;1.83;;;;;;;24.23;86.54;97153.56;5053631;27;105553;-60
2022/07/17 08:36:35;;;;;;;3.07;1.80;;;;;;;24.25;87.90;97151.34;5053872;27;101837;-60
2022/07/17 08:39:03;;;;;;;1.87;1.77;;;;;;;24.60;84.43;97142.09;5053749;27;102645;-60
2022/07/17 08:41:36;;;;;;;1.80;1.70;;;;;;;24.71;80.69;97148.81;5053249;27;103790;-60
2022/07/17 08:44:04;;;;;;;1.80;1.70;;;;;;;24.38;66.93;97142.22;5053908;27;101998;-60
2022/07/17 08:46:53;;;;;;;1.60;1.50;;;;;;;24.63;81.78;97136.03;5054120;27;104868;-60
2022/07/17 08:49:22;;;;;;;3.90;1.50;;;;;;;24.85;80.09;97144.00;5033035;27;106034;-60
2022/07/17 08:51:50;;;;;;;2.70;1.60;;;;;;;25.13;84.95;97139.75;5052056;27;101880;-60
2022/07/17 08:54:17;;;;;;;2.50;1.87;;;;;;;24.92;66.71;97145.09;5075110;27;102586;-60
2022/07/17 08:57:26;;;;;;;2.13;1.53;;;;;;;25.27;76.75;97145.81;5053717;27;102019;-60
2022/07/17 08:59:53;;;;;;;1.67;1.57;;;;;;;25.62;79.16;97147.28;5053666;27;105309;-60
2022/07/17 09:02:22;;;;;;;2.83;1.60;;;;;;;25.85;69.18;97149.41;5053342;27;104071;-60
2022/07/17 09:04:56;;;;;;;2.07;1.53;;;;;;;26.02;58.95;97148.53;5053489;27;102001;-60
2022/07/17 09:07:23;;;;;;;2.27;1.57;;;;;;;26.18;54.11;97155.81;5053839;27;105501;-60
2022/07/17 09:09:52;;;;;;;2.10;1.50;;;;;;;26.36;51.26;97156.47;5085520;27;105893;-60
2022/07/17 09:12:24;;;;;;;1.67;1.57;;;;;;;26.36;52.28;97161.94;5052800;27;101946;-60
2022/07/17 09:14:52;;;;;;;2.83;1.40;;;;;;;26.31;47.36;97160.22;5074792;27;102345;-60
2022/07/17 09:17:22;;;;;;;1.70;1.60;;;;;;;26.47;51.25;97153.03;5072247;27;101652;-60
2022/07/17 09:19:49;;;;;;;1.73;1.43;;;;;;;26.55;50.51;97154.13;5071840;27;102335;-60
2022/07/17 09:22:20;;;;;;;1.40;1.30;;;;;;;26.80;52.09;97161.28;5071248;27;103944;-60
2022/07/17 09:25:07;;;;;;;2.47;1.50;;;;;;;26.83;53.44;97155.16;5052102;27;101863;-60
2022/07/17 09:27:35;;;;;;;2.63;1.40;;;;;;;26.93;47.48;97155.53;5053197;27;105213;-60
2022/07/17 09:30:05;;;;;;;1.70;1.60;;;;;;;26.93;51.13;97149.28;5071036;27;103599;-60
2022/07/17 09:32:36;;;;;;;3.03;1.57;;;;;;;27.21;51.20;97153.84;5071700;27;101702;-60
2022/07/17 09:35:06;;;;;;;1.87;1.40;;;;;;;26.68;49.94;97144.84;5071630;27;102370;-60
2022/07/17 09:37:35;;;;;;;2.20;1.63;;;;;;;26.63;52.36;97150.50;5074596;27;102548;-60
2022/07/17 09:40:02;;;;;;;2.07;1.47;;;;;;;27.00;48.18;97144.06;5071289;27;102480;-60
2022/07/17 09:42:31;;;;;;;1.53;1.43;;;;;;;27.20;49.22;97151.44;5069710;27;102590;-60
2022/07/17 09:45:11;;;;;;;1.50;1.40;;;;;;;27.42;51.55;97140.09;5071251;27;101884;-60
2022/07/17 09:47:40;;;;;;;2.90;1.60;;;;;;;27.02;47.54;97144.53;5071554;27;102400;-60
2022/07/17 09:50:11;;;;;;;2.30;1.60;;;;;;;27.37;46.47;97140.31;5052427;27;105481;-60
2022/07/17 09:52:39;;;;;;;2.47;1.50;;;;;;;27.44;45.01;97144.06;5052817;27;101804;-60
2022/07/17 09:55:57;;;;;;;2.37;1.30;;;;;;;27.53;45.51;97141.25;5071120;27;102397;-60
2022/07/17 09:58:25;;;;;;;2.17;1.40;;;;;;;27.34;44.91;97144.50;5051825;27;106163;-60
2022/07/17 10:00:53;;;;;;;4.10;1.37;;;;;;;27.60;43.14;97142.28;5074919;27;102184;-60
2022/07/17 10:03:21;;;;;;;1.30;1.20;;;;;;;27.43;43.31;97131.56;5052157;27;105315;-60
2022/07/17 10:05:49;;;;;;;5.37;1.63;;;;;;;27.82;44.79;97139.13;5071105;27;101876;-60
2022/07/17 10:08:16;;;;;;;2.27;1.37;;;;;;;28.17;41.53;97137.47;5070239;27;102562;-61
2022/07/17 10:10:44;;;;;;;1.43;1.37;;;;;;;28.35;40.60;97146.22;5070665;27;102646;-60
2022/07/17 10:13:12;;;;;;;1.37;1.27;;;;;;;28.15;39.86;97142.50;5070334;27;102042;-61
2022/07/17 10:15:40;;;;;;;1.80;1.50;;;;;;;28.17;40.19;97142.16;5052347;27;105500;-60
2022/07/17 10:18:07;;;;;;;1.50;1.33;;;;;;;28.32;39.36;97146.91;5051669;27;104007;-60
2022/07/17 10:20:40;;;;;;;1.40;1.30;;;;;;;28.88;39.58;97145.84;5070985;27;101793;-60
2022/07/17 10:23:17;;;;;;;1.17;1.10;;;;;;;28.81;38.37;97137.41;5073947;27;102357;-61
2022/07/17 10:25:46;;;;;;;3.90;1.37;;;;;;;28.95;38.51;97143.28;5071408;27;102057;-60
2022/07/17 10:28:16;;;;;;;1.50;1.40;;;;;;;28.89;37.11;97139.22;5070854;27;101848;-60
2022/07/17 10:30:46;;;;;;;2.47;1.20;;;;;;;28.89;37.98;97137.25;5070592;27;103179;-61
2022/07/17 10:33:17;;;;;;;3.63;1.37;;;;;;;29.01;37.13;97136.44;5070597;27;101873;-59
2022/07/17 10:35:59;;;;;;;2.00;1.38;;;;;;;29.22;36.83;97140.56;5052822;27;105640;-60
2022/07/17 10:38:28;;;;;;;2.35;1.38;;;;;;;29.02;35.95;97135.28;5073466;27;101876;-61
2022/07/17 10:41:01;;;;;;;1.63;1.48;;;;;;;28.74;37.49;97134.47;5074443;27;101940;-61
2022/07/17 10:43:28;;;;;;;1.17;1.10;;;;;;;29.10;36.08;97129.66;5035846;27;104122;-61
2022/07/17 10:46:05;;;;;;;1.40;1.30;;;;;;;29.20;37.19;97133.84;5061425;27;103006;-61
2022/07/17 10:48:32;;;;;;;1.33;1.23;;;;;;;29.16;36.52;97125.50;5045529;27;105248;-61
2022/07/17 10:51:51;;;;;;;2.28;1.25;;;;;;;29.52;36.25;97133.50;5055263;27;103789;-61
2022/07/17 10:54:20;;;;;;;4.60;1.45;;;;;;;29.71;36.56;97138.28;5055906;27;101945;-60
2022/07/17 10:56:48;;;;;;;1.65;1.27;;;;;;;29.84;36.30;97139.78;5055547;27;105289;-61
2022/07/17 10:59:15;;;;;;;1.37;1.23;;;;;;;29.56;37.97;97134.41;5055051;27;105571;-60
2022/07/17 11:01:42;;;;;;;4.45;1.30;;;;;;;29.59;37.48;97135.66;5055337;27;101929;-60
2022/07/17 11:04:10;;;;;;;2.42;1.98;;;;;;;29.74;35.16;97140.34;5055702;27;105368;-60
2022/07/17 11:06:45;;;;;;;1.73;1.40;;;;;;;29.67;36.89;97132.72;5054652;27;105511;-60
2022/07/17 11:09:13;;;;;;;1.25;1.15;;;;;;;29.41;36.24;97128.88;5055546;27;101720;-60
2022/07/17 11:11:43;;;;;;;3.50;1.20;;;;;;;30.02;37.21;97132.78;5043269;27;105622;-61
2022/07/17 11:14:12;;;;;;;1.40;1.13;;;;;;;30.15;34.70;97129.59;5073666;27;101663;-61
2022/07/17 11:16:56;;;;;;;1.83;1.33;;;;;;;30.29;35.88;97129.09;5055453;27;106657;-60
2022/07/17 11:19:36;;;;;;;1.30;1.20;;;;;;;30.07;38.07;97121.53;5073135;27;103384;-60
2022/07/17 11:22:04;;;;;;;2.53;1.30;;;;;;;30.00;35.11;97119.41;5073742;27;101642;-61
2022/07/17 11:24:37;;;;;;;1.83;1.30;;;;;;;30.02;34.79;97111.59;5073500;27;102536;-61
2022/07/17 11:27:06;;;;;;;1.60;1.40;;;;;;;30.09;37.87;97110.97;5073505;27;103079;-61